Yates, Missouri
Current Conditions -  °F | °C
As of 6:15 PM on Thursday 27 Nov 2014 (Local Time) from KVER Reporting Station
Clear Clear  
Wind Chill: 30°   Ceiling: Unl
Heat Index: 30°   Visibility: 10mi
Dew Point: 23°   Wind: 3mph
Humidity: 75%   Direction: 100°E
Pressure: 30.43"   Gusts: NA
Location:  39.3081°N, 92.5236°W
Report Text: KVER 280015Z AUTO 10003KT 10SM CLR M01/M05 A3043 RMK AO2 T10121051
Loading
Personal Weather Stations






























Interactive Weather Map New forecast layout! Learn more

10-Day Weather Forecast

Advertisements
Track Severe Weather on mobile